createdAt,value
2023-03-06T00:00:37.484Z,14.60
2023-03-06T00:01:37.459Z,14.60
2023-03-06T00:02:37.456Z,14.50
2023-03-06T00:03:37.546Z,14.50
2023-03-06T00:04:37.473Z,14.30
2023-03-06T00:05:37.548Z,14.70
2023-03-06T00:06:37.436Z,14.60
2023-03-06T00:07:37.419Z,14.60
2023-03-06T00:08:37.411Z,13.50
2023-03-06T00:09:37.405Z,14.20
2023-03-06T00:10:37.398Z,13.60
2023-03-06T00:11:37.394Z,13.80
2023-03-06T00:12:37.400Z,14.30
2023-03-06T00:13:37.381Z,13.80
2023-03-06T00:14:37.370Z,13.80
2023-03-06T00:15:37.368Z,12.60
2023-03-06T00:16:37.435Z,13.10
2023-03-06T00:17:37.355Z,13.10
2023-03-06T00:18:37.353Z,13.00
2023-03-06T00:19:37.347Z,12.80
2023-03-06T00:20:37.333Z,12.30
2023-03-06T00:21:37.330Z,12.10
2023-03-06T00:22:37.320Z,12.00
2023-03-06T00:23:37.334Z,11.30
2023-03-06T00:24:37.665Z,12.10
2023-03-06T00:25:37.308Z,12.40
2023-03-06T00:26:37.295Z,12.50
2023-03-06T00:27:37.289Z,12.60
2023-03-06T00:28:37.298Z,12.50
2023-03-06T00:29:37.275Z,12.90
2023-03-06T00:30:37.266Z,13.70
2023-03-06T00:31:37.293Z,13.90
2023-03-06T00:32:37.292Z,14.70
2023-03-06T00:33:37.247Z,14.30
2023-03-06T00:34:37.239Z,14.60
2023-03-06T00:35:37.272Z,14.60
2023-03-06T00:36:37.226Z,14.90
2023-03-06T00:37:37.227Z,17.40
2023-03-06T00:38:37.242Z,15.00
2023-03-06T00:39:37.207Z,16.40
2023-03-06T00:40:37.206Z,17.50
2023-03-06T00:41:37.194Z,16.40
2023-03-06T00:42:37.194Z,16.50
2023-03-06T00:43:37.180Z,16.30
2023-03-06T00:44:37.190Z,17.30
2023-03-06T00:45:37.221Z,16.50
2023-03-06T00:46:37.160Z,17.10
2023-03-06T00:47:37.168Z,21.10
2023-03-06T00:48:37.147Z,21.60
2023-03-06T00:49:37.143Z,20.30
2023-03-06T00:50:37.132Z,21.50
2023-03-06T00:51:37.135Z,21.30
2023-03-06T00:52:37.136Z,20.70
2023-03-06T00:53:37.120Z,21.00
2023-03-06T00:54:37.110Z,20.70
2023-03-06T00:55:37.101Z,20.10
2023-03-06T00:56:37.102Z,20.70
2023-03-06T00:57:37.089Z,20.30
2023-03-06T00:58:37.080Z,19.80
2023-03-06T00:59:37.076Z,20.40
2023-03-06T01:00:37.124Z,21.60
2023-03-06T01:01:37.061Z,19.30
2023-03-06T01:02:37.061Z,21.70
2023-03-06T01:03:37.053Z,19.90
2023-03-06T01:04:37.041Z,20.10
2023-03-06T01:05:37.038Z,19.80
2023-03-06T01:06:37.026Z,20.00
2023-03-06T01:07:37.039Z,20.40
2023-03-06T01:08:37.017Z,21.70
2023-03-06T01:09:37.012Z,20.30
2023-03-06T01:10:36.999Z,19.80
2023-03-06T01:11:36.993Z,20.20
2023-03-06T01:12:36.986Z,19.90
2023-03-06T01:13:36.981Z,20.30
2023-03-06T01:14:36.975Z,21.50
2023-03-06T01:15:36.967Z,21.20
2023-03-06T01:16:37.103Z,21.90
2023-03-06T01:17:36.952Z,20.60
2023-03-06T01:18:36.944Z,20.00
2023-03-06T01:19:36.953Z,22.60
2023-03-06T01:20:36.932Z,21.50
2023-03-06T01:21:36.925Z,21.40
2023-03-06T01:22:36.921Z,24.50
2023-03-06T01:23:36.914Z,25.40
2023-03-06T01:24:36.907Z,26.40
2023-03-06T01:25:36.898Z,24.60
2023-03-06T01:26:36.890Z,26.30
2023-03-06T01:27:36.893Z,24.10
2023-03-06T01:28:36.877Z,24.40
2023-03-06T01:29:36.874Z,25.80
2023-03-06T01:30:36.870Z,26.00
2023-03-06T01:31:36.978Z,26.30
2023-03-06T01:32:36.927Z,23.50
2023-03-06T01:33:36.846Z,22.90
2023-03-06T01:34:36.840Z,22.20
2023-03-06T01:35:36.839Z,24.00
2023-03-06T01:36:36.828Z,26.10
2023-03-06T01:37:36.826Z,24.10
2023-03-06T01:38:36.818Z,25.90
2023-03-06T01:39:36.811Z,25.30
2023-03-06T01:40:36.808Z,23.50
2023-03-06T01:41:36.796Z,26.10
2023-03-06T01:42:36.792Z,23.90
2023-03-06T01:43:36.783Z,25.20
2023-03-06T01:44:36.788Z,26.90
2023-03-06T01:45:36.797Z,25.20
2023-03-06T01:46:36.766Z,26.20
2023-03-06T01:47:36.756Z,24.50
2023-03-06T01:48:36.771Z,24.80
2023-03-06T01:49:36.760Z,26.30
2023-03-06T01:50:36.741Z,26.80
2023-03-06T01:51:36.736Z,26.40
2023-03-06T01:52:36.730Z,26.60
2023-03-06T01:53:36.718Z,27.00
2023-03-06T01:54:36.720Z,25.60
2023-03-06T01:55:36.706Z,25.50
2023-03-06T01:56:36.700Z,25.60
2023-03-06T01:57:36.699Z,26.10
2023-03-06T01:58:36.691Z,28.60
2023-03-06T01:59:36.688Z,27.90
2023-03-06T02:00:36.677Z,27.90
2023-03-06T02:01:36.671Z,26.60
2023-03-06T02:02:36.740Z,26.10
2023-03-06T02:03:36.653Z,26.40
2023-03-06T02:04:36.672Z,27.00
2023-03-06T02:05:36.640Z,28.30
2023-03-06T02:06:36.636Z,28.90
2023-03-06T02:07:36.629Z,27.00
2023-03-06T02:08:36.628Z,27.10
2023-03-06T02:09:36.617Z,27.30
2023-03-06T02:10:36.615Z,27.10
2023-03-06T02:11:36.678Z,29.30
2023-03-06T02:12:36.596Z,29.50
2023-03-06T02:13:36.588Z,30.10
2023-03-06T02:14:36.596Z,29.50
2023-03-06T02:15:36.577Z,28.40
2023-03-06T02:16:36.587Z,27.30
2023-03-06T02:17:36.564Z,26.30
2023-03-06T02:18:36.561Z,28.10
2023-03-06T02:19:36.555Z,30.50
2023-03-06T02:20:36.566Z,28.70
2023-03-06T02:21:36.537Z,29.00
2023-03-06T02:22:36.531Z,30.50
2023-03-06T02:23:36.526Z,27.10
2023-03-06T02:24:36.527Z,27.40
2023-03-06T02:25:36.514Z,28.30
2023-03-06T02:26:36.516Z,28.30
2023-03-06T02:27:36.523Z,27.00
2023-03-06T02:28:36.500Z,30.00
2023-03-06T02:29:36.899Z,28.50
2023-03-06T02:30:36.578Z,28.50
2023-03-06T02:31:36.522Z,28.00
2023-03-06T02:32:36.571Z,27.20
2023-03-06T02:33:36.493Z,27.50
2023-03-06T02:34:36.525Z,27.80
2023-03-06T02:35:36.513Z,28.00
2023-03-06T02:36:36.518Z,27.60
2023-03-06T02:37:36.505Z,29.40
2023-03-06T02:38:36.500Z,29.10
2023-03-06T02:39:36.476Z,27.40
2023-03-06T02:40:36.414Z,28.00
2023-03-06T02:41:36.415Z,27.10
2023-03-06T02:42:36.399Z,26.00
2023-03-06T02:43:36.399Z,27.30
2023-03-06T02:44:36.405Z,30.00
2023-03-06T02:45:36.386Z,29.20
2023-03-06T02:46:36.424Z,29.90
2023-03-06T02:47:36.364Z,28.30
2023-03-06T02:48:36.361Z,29.10
2023-03-06T02:49:36.348Z,29.40
2023-03-06T02:50:36.343Z,28.90
2023-03-06T02:51:36.333Z,29.00
2023-03-06T02:52:36.350Z,28.80
2023-03-06T02:53:36.320Z,32.90
2023-03-06T02:54:36.322Z,31.50
2023-03-06T02:55:36.309Z,31.90
2023-03-06T02:56:36.305Z,29.40
2023-03-06T02:57:36.295Z,28.50
2023-03-06T02:58:36.288Z,31.10
2023-03-06T02:59:36.289Z,31.60
2023-03-06T03:00:36.276Z,31.60
2023-03-06T03:01:36.305Z,31.00
2023-03-06T03:02:36.260Z,31.00
2023-03-06T03:03:36.252Z,29.60
2023-03-06T03:04:36.287Z,28.60
2023-03-06T03:05:36.265Z,31.30
2023-03-06T03:06:36.236Z,30.20
2023-03-06T03:07:36.232Z,31.10
2023-03-06T03:08:36.243Z,32.80
2023-03-06T03:09:36.210Z,32.20
2023-03-06T03:10:36.206Z,33.90
2023-03-06T03:11:36.201Z,31.40
2023-03-06T03:12:36.203Z,30.80
2023-03-06T03:13:36.186Z,30.20
2023-03-06T03:14:36.250Z,29.70
2023-03-06T03:15:36.217Z,33.20
2023-03-06T03:16:38.839Z,32.70
2023-03-06T03:17:36.160Z,33.10
2023-03-06T03:18:36.163Z,30.20
2023-03-06T03:19:36.146Z,31.10
2023-03-06T03:20:36.143Z,31.40
2023-03-06T03:21:36.140Z,32.00
2023-03-06T03:22:36.130Z,34.10
2023-03-06T03:23:36.123Z,33.90
2023-03-06T03:24:36.239Z,34.40
2023-03-06T03:25:36.112Z,31.50
2023-03-06T03:26:36.105Z,32.20
2023-03-06T03:27:36.114Z,30.70
2023-03-06T03:28:36.092Z,30.80
2023-03-06T03:29:36.083Z,33.70
2023-03-06T03:30:36.077Z,34.20
2023-03-06T03:31:36.077Z,33.00
2023-03-06T03:32:36.115Z,31.70
2023-03-06T03:33:36.059Z,31.70
2023-03-06T03:34:36.201Z,32.40
2023-03-06T03:35:36.080Z,30.90
2023-03-06T03:36:36.046Z,33.30
2023-03-06T03:37:36.032Z,32.80
2023-03-06T03:38:36.042Z,34.30
2023-03-06T03:39:36.026Z,33.50
2023-03-06T03:40:36.044Z,31.40
2023-03-06T03:41:36.002Z,29.80
2023-03-06T03:42:35.998Z,32.10
2023-03-06T03:43:35.988Z,29.00
2023-03-06T03:44:35.999Z,31.70
2023-03-06T03:45:35.975Z,29.80
2023-03-06T03:46:36.220Z,29.80
2023-03-06T03:47:35.974Z,31.60
2023-03-06T03:48:35.957Z,28.00
2023-03-06T03:49:35.959Z,27.50
2023-03-06T03:50:35.947Z,26.50
2023-03-06T03:51:35.947Z,30.60
2023-03-06T03:52:35.929Z,28.90
2023-03-06T03:53:35.920Z,28.50
2023-03-06T03:54:35.915Z,28.70
2023-03-06T03:55:35.906Z,29.10
2023-03-06T03:56:35.924Z,27.90
2023-03-06T03:57:35.894Z,27.70
2023-03-06T03:58:35.886Z,27.90
2023-03-06T03:59:35.878Z,28.90
2023-03-06T04:00:35.880Z,28.50
2023-03-06T04:01:38.441Z,28.50
2023-03-06T04:02:35.868Z,28.80
2023-03-06T04:03:35.848Z,28.70
2023-03-06T04:04:35.882Z,27.80
2023-03-06T04:05:35.834Z,26.40
2023-03-06T04:06:35.829Z,27.70
2023-03-06T04:07:35.836Z,26.60
2023-03-06T04:08:35.816Z,28.60
2023-03-06T04:09:35.813Z,27.90
2023-03-06T04:10:35.807Z,28.10
2023-03-06T04:11:35.796Z,27.10
2023-03-06T04:12:35.805Z,27.40
2023-03-06T04:13:35.784Z,26.70
2023-03-06T04:14:35.787Z,27.00
2023-03-06T04:15:35.772Z,30.60
2023-03-06T04:16:35.819Z,30.10
2023-03-06T04:17:35.752Z,27.30
2023-03-06T04:18:35.751Z,29.60
2023-03-06T04:19:35.744Z,29.00
2023-03-06T04:20:35.732Z,28.30
2023-03-06T04:21:35.731Z,28.30
2023-03-06T04:22:35.724Z,27.60
2023-03-06T04:23:35.711Z,29.80
2023-03-06T04:24:35.709Z,30.50
2023-03-06T04:25:35.699Z,29.50
2023-03-06T04:26:35.691Z,29.90
2023-03-06T04:27:35.688Z,29.10
2023-03-06T04:28:35.700Z,28.10
2023-03-06T04:29:35.673Z,28.10
2023-03-06T04:30:35.677Z,30.00
2023-03-06T04:31:35.734Z,31.30
2023-03-06T04:32:35.787Z,32.80
2023-03-06T04:33:35.648Z,31.10
2023-03-06T04:34:35.639Z,28.10
2023-03-06T04:35:35.661Z,28.50
2023-03-06T04:36:35.641Z,29.00
2023-03-06T04:37:35.630Z,29.50
2023-03-06T04:38:35.631Z,30.20
2023-03-06T04:39:35.607Z,31.50
2023-03-06T04:40:35.607Z,31.80
2023-03-06T04:41:35.594Z,31.10
2023-03-06T04:42:35.588Z,29.20
2023-03-06T04:43:35.578Z,30.60
2023-03-06T04:44:35.594Z,30.70
2023-03-06T04:45:35.581Z,28.70
2023-03-06T04:46:35.568Z,28.60
2023-03-06T04:47:35.557Z,31.90
2023-03-06T04:48:35.546Z,31.50
2023-03-06T04:49:35.537Z,31.20
2023-03-06T04:50:35.536Z,29.90
2023-03-06T04:51:35.531Z,29.40
2023-03-06T04:52:35.524Z,30.70
2023-03-06T04:53:35.510Z,31.70
2023-03-06T04:54:35.506Z,31.00
2023-03-06T04:55:35.496Z,32.40
2023-03-06T04:56:35.497Z,31.90
2023-03-06T04:57:35.484Z,32.50
2023-03-06T04:58:35.483Z,32.10
2023-03-06T04:59:38.099Z,32.30
2023-03-06T05:00:35.481Z,31.00
2023-03-06T05:01:35.455Z,35.40
2023-03-06T05:02:35.454Z,34.00
2023-03-06T05:03:35.440Z,34.00
2023-03-06T05:04:35.434Z,32.90
2023-03-06T05:05:35.427Z,31.10
2023-03-06T05:06:35.420Z,33.60
2023-03-06T05:07:35.456Z,32.10
2023-03-06T05:08:35.415Z,36.30
2023-03-06T05:09:36.522Z,36.30
2023-03-06T05:10:35.391Z,37.20
2023-03-06T05:11:35.383Z,38.20
2023-03-06T05:12:35.377Z,34.70
2023-03-06T05:13:35.370Z,33.90
2023-03-06T05:14:35.368Z,35.20
2023-03-06T05:15:35.354Z,35.20
2023-03-06T05:16:35.404Z,36.80
2023-03-06T05:17:35.342Z,38.70
2023-03-06T05:18:35.336Z,38.70
2023-03-06T05:19:35.326Z,37.30
2023-03-06T05:20:35.323Z,36.00
2023-03-06T05:21:35.315Z,36.30
2023-03-06T05:22:35.311Z,35.50
2023-03-06T05:23:35.298Z,35.90
2023-03-06T05:24:35.292Z,40.50
2023-03-06T05:25:35.287Z,39.30
2023-03-06T05:26:35.281Z,40.60
2023-03-06T05:27:35.271Z,39.30
2023-03-06T05:28:35.270Z,35.80
2023-03-06T05:29:35.259Z,37.30
2023-03-06T05:30:35.251Z,36.70
2023-03-06T05:31:35.312Z,38.90
2023-03-06T05:32:35.904Z,42.60
2023-03-06T05:33:35.233Z,40.20
2023-03-06T05:34:35.228Z,39.10
2023-03-06T05:35:35.250Z,39.10
2023-03-06T05:36:35.211Z,35.60
2023-03-06T05:37:35.207Z,38.00
2023-03-06T05:38:35.209Z,37.80
2023-03-06T05:39:35.192Z,37.70
2023-03-06T05:40:35.186Z,38.80
2023-03-06T05:41:35.177Z,39.20
2023-03-06T05:42:35.172Z,39.90
2023-03-06T05:43:35.166Z,41.00
2023-03-06T05:44:35.163Z,40.40
2023-03-06T05:45:35.249Z,39.60
2023-03-06T05:46:35.147Z,37.80
2023-03-06T05:47:35.142Z,38.00
2023-03-06T05:48:35.158Z,38.80
2023-03-06T05:49:35.138Z,41.60
2023-03-06T05:50:35.132Z,40.40
2023-03-06T05:51:35.115Z,40.20
2023-03-06T05:52:35.109Z,39.70
2023-03-06T05:53:35.105Z,40.30
2023-03-06T05:54:35.099Z,39.00
2023-03-06T05:55:35.089Z,42.40
2023-03-06T05:56:35.076Z,42.20
2023-03-06T05:57:35.069Z,39.90
2023-03-06T05:58:35.076Z,40.50
2023-03-06T05:59:35.067Z,40.60
2023-03-06T06:00:35.045Z,39.50
2023-03-06T06:01:35.043Z,39.90
2023-03-06T06:02:35.078Z,40.30
2023-03-06T06:03:35.056Z,42.50
2023-03-06T06:04:35.041Z,42.00
2023-03-06T06:05:35.015Z,43.00
2023-03-06T06:06:35.014Z,37.70
2023-03-06T06:07:35.015Z,39.30
2023-03-06T06:08:34.989Z,40.40
2023-03-06T06:09:34.997Z,38.70
2023-03-06T06:10:34.978Z,39.30
2023-03-06T06:11:34.972Z,41.40
2023-03-06T06:12:34.964Z,40.90
2023-03-06T06:13:34.958Z,43.40
2023-03-06T06:14:34.948Z,39.70
2023-03-06T06:15:34.956Z,39.60
2023-03-06T06:16:34.935Z,40.00
2023-03-06T06:17:34.933Z,39.40
2023-03-06T06:18:34.922Z,39.50
2023-03-06T06:19:34.918Z,39.30
2023-03-06T06:20:34.925Z,37.40
2023-03-06T06:21:34.905Z,39.60
2023-03-06T06:22:34.896Z,37.60
2023-03-06T06:23:34.901Z,36.50
2023-03-06T06:24:34.884Z,37.50
2023-03-06T06:25:34.877Z,38.70
2023-03-06T06:26:34.871Z,37.70
2023-03-06T06:27:34.861Z,39.30
2023-03-06T06:28:34.852Z,39.30
2023-03-06T06:29:34.847Z,37.40
2023-03-06T06:30:34.842Z,36.20
2023-03-06T06:31:34.836Z,36.80
2023-03-06T06:32:34.853Z,36.70
2023-03-06T06:33:34.820Z,36.40
2023-03-06T06:34:34.812Z,36.20
2023-03-06T06:35:34.862Z,37.30
2023-03-06T06:36:34.834Z,35.70
2023-03-06T06:37:34.794Z,36.10
2023-03-06T06:38:34.786Z,35.10
2023-03-06T06:39:34.783Z,35.90
2023-03-06T06:40:34.777Z,36.70
2023-03-06T06:42:15.447Z,38.80
2023-03-06T06:42:39.696Z,38.70
2023-03-06T06:43:34.762Z,37.20
2023-03-06T06:44:34.746Z,37.10
2023-03-06T06:45:34.741Z,35.10
2023-03-06T06:47:18.161Z,35.70
2023-03-06T06:47:34.778Z,35.30
2023-03-06T06:48:34.722Z,34.50
2023-03-06T06:49:34.711Z,35.50
2023-03-06T06:50:34.707Z,36.90
2023-03-06T06:51:34.707Z,36.10
2023-03-06T06:52:34.714Z,34.50
2023-03-06T06:53:34.687Z,33.90
2023-03-06T06:54:34.692Z,34.30
2023-03-06T06:55:34.672Z,33.30
2023-03-06T06:56:34.670Z,34.70
2023-03-06T06:57:34.660Z,33.80
2023-03-06T06:58:34.651Z,35.40
2023-03-06T06:59:35.157Z,34.00
2023-03-06T07:00:34.641Z,33.70
2023-03-06T07:01:34.647Z,34.00
2023-03-06T07:02:34.630Z,34.20
2023-03-06T07:03:34.628Z,38.00
2023-03-06T07:04:34.627Z,35.10
2023-03-06T07:05:34.620Z,36.60
2023-03-06T07:06:34.594Z,35.00
2023-03-06T07:07:34.600Z,33.80
2023-03-06T07:08:34.625Z,34.20
2023-03-06T07:09:34.582Z,34.20
2023-03-06T07:10:34.571Z,35.10
2023-03-06T07:11:34.567Z,37.10
2023-03-06T07:12:34.552Z,34.30
2023-03-06T07:13:34.547Z,34.40
2023-03-06T07:14:34.539Z,33.80
2023-03-06T07:15:34.573Z,35.80
2023-03-06T07:16:34.531Z,35.20
2023-03-06T07:17:34.524Z,37.80
2023-03-06T07:18:34.516Z,37.50
2023-03-06T07:19:34.506Z,35.70
2023-03-06T07:20:34.499Z,34.70
2023-03-06T07:21:34.502Z,35.90
2023-03-06T07:22:49.939Z,36.10
2023-03-06T07:23:34.480Z,37.50
2023-03-06T07:24:34.493Z,35.30
2023-03-06T07:25:34.467Z,38.50
2023-03-06T07:26:34.964Z,37.60
2023-03-06T07:27:34.498Z,38.70
2023-03-06T07:28:49.831Z,38.10
2023-03-06T07:29:34.506Z,37.30
2023-03-06T07:30:34.446Z,36.00
2023-03-06T07:31:34.479Z,36.40
2023-03-06T07:32:34.452Z,38.40
2023-03-06T07:33:34.414Z,38.40
2023-03-06T07:34:34.412Z,38.00
2023-03-06T07:35:34.427Z,35.90
2023-03-06T07:36:34.460Z,35.40
2023-03-06T07:37:34.390Z,36.20
2023-03-06T07:38:34.382Z,38.00
2023-03-06T07:39:34.375Z,36.00
2023-03-06T07:40:34.387Z,38.30
2023-03-06T07:41:34.365Z,36.90
2023-03-06T07:42:34.354Z,36.20
2023-03-06T07:43:34.352Z,34.20
2023-03-06T07:44:34.340Z,34.70
2023-03-06T07:45:34.336Z,30.10
2023-03-06T07:46:34.366Z,32.20
2023-03-06T07:47:34.323Z,34.00
2023-03-06T07:48:34.313Z,33.80
2023-03-06T07:49:34.316Z,32.20
2023-03-06T07:50:34.305Z,31.90
2023-03-06T07:51:34.301Z,32.40
2023-03-06T07:52:34.288Z,32.10
2023-03-06T07:53:34.286Z,32.90
2023-03-06T07:54:34.276Z,33.00
2023-03-06T07:55:34.270Z,33.20
2023-03-06T07:56:34.287Z,33.90
2023-03-06T07:57:34.253Z,35.90
2023-03-06T07:58:34.247Z,32.70
2023-03-06T07:59:34.240Z,32.70
2023-03-06T08:00:34.231Z,31.90
2023-03-06T08:01:34.244Z,32.50
2023-03-06T08:02:34.265Z,32.20
2023-03-06T08:03:34.255Z,32.90
2023-03-06T08:04:34.209Z,35.90
2023-03-06T08:05:34.198Z,32.60
2023-03-06T08:06:34.192Z,33.40
2023-03-06T08:07:34.188Z,33.10
2023-03-06T08:08:34.180Z,32.00
2023-03-06T08:09:34.173Z,33.30
2023-03-06T08:10:34.169Z,32.80
2023-03-06T08:11:34.169Z,32.20
2023-03-06T08:12:34.164Z,34.80
2023-03-06T08:13:34.152Z,33.30
2023-03-06T08:14:34.139Z,34.90
2023-03-06T08:15:34.129Z,30.60
2023-03-06T08:16:34.205Z,32.30
2023-03-06T08:17:34.118Z,34.10
2023-03-06T08:18:34.109Z,32.80
2023-03-06T08:19:34.106Z,35.00
2023-03-06T08:20:34.090Z,34.40
2023-03-06T08:21:34.090Z,34.20
2023-03-06T08:22:34.079Z,34.00
2023-03-06T08:23:34.076Z,32.40
2023-03-06T08:24:34.071Z,32.50
2023-03-06T08:25:34.058Z,34.00
2023-03-06T08:26:34.069Z,32.80
2023-03-06T08:27:34.054Z,36.10
2023-03-06T08:28:34.076Z,34.80
2023-03-06T08:29:34.050Z,35.80
2023-03-06T08:30:34.030Z,32.50
2023-03-06T08:31:34.165Z,36.30
2023-03-06T08:32:34.054Z,34.50
2023-03-06T08:33:34.005Z,34.90
2023-03-06T08:34:34.000Z,36.90
2023-03-06T08:35:34.004Z,37.50
2023-03-06T08:36:33.982Z,39.50
2023-03-06T08:37:34.071Z,37.50
2023-03-06T08:38:33.968Z,36.40
2023-03-06T08:39:33.963Z,37.70
2023-03-06T08:40:33.953Z,38.30
2023-03-06T08:41:33.950Z,43.10
2023-03-06T08:42:33.941Z,41.50
2023-03-06T08:43:33.945Z,41.90
2023-03-06T08:44:34.003Z,42.00
2023-03-06T08:45:33.942Z,43.60
2023-03-06T08:46:33.914Z,46.50
2023-03-06T08:47:33.909Z,42.10
2023-03-06T08:48:33.905Z,44.40
2023-03-06T08:49:33.894Z,44.60
2023-03-06T08:50:33.895Z,44.10
2023-03-06T08:51:33.886Z,45.40
2023-03-06T08:52:33.873Z,43.50
2023-03-06T08:53:43.120Z,43.80
2023-03-06T08:54:33.857Z,50.50
2023-03-06T08:55:33.853Z,47.00
2023-03-06T08:56:33.851Z,48.00
2023-03-06T08:57:33.840Z,43.10
2023-03-06T08:58:33.832Z,44.00
2023-03-06T08:59:33.826Z,44.50
2023-03-06T09:00:33.858Z,43.80
2023-03-06T09:01:33.823Z,43.90
2023-03-06T09:02:33.833Z,45.40
2023-03-06T09:03:33.818Z,44.70
2023-03-06T09:04:33.793Z,44.90
2023-03-06T09:05:34.245Z,44.30
2023-03-06T09:06:33.776Z,43.50
2023-03-06T09:07:33.775Z,42.60
2023-03-06T09:08:33.763Z,45.20
2023-03-06T09:09:33.765Z,43.50
2023-03-06T09:10:33.798Z,41.80
2023-03-06T09:11:33.751Z,44.40
2023-03-06T09:12:47.347Z,44.50
2023-03-06T09:13:33.733Z,47.10
2023-03-06T09:14:33.733Z,41.40
2023-03-06T09:15:33.718Z,43.00
2023-03-06T09:16:33.859Z,40.50
2023-03-06T09:17:33.738Z,40.30
2023-03-06T09:18:33.701Z,41.00
2023-03-06T09:19:33.697Z,37.00
2023-03-06T09:20:33.686Z,40.50
2023-03-06T09:21:33.682Z,40.80
2023-03-06T09:22:33.677Z,40.00
2023-03-06T09:23:33.667Z,39.50
2023-03-06T09:24:33.664Z,38.10
2023-03-06T09:25:33.657Z,37.40
2023-03-06T09:26:45.639Z,39.70
2023-03-06T09:27:33.645Z,41.40
2023-03-06T09:28:33.641Z,43.50
2023-03-06T09:29:33.640Z,42.60
2023-03-06T09:30:33.668Z,41.10
2023-03-06T09:31:33.619Z,40.90
2023-03-06T09:32:33.723Z,37.70
2023-03-06T09:33:33.602Z,40.30
2023-03-06T09:34:33.609Z,39.10
2023-03-06T09:35:33.604Z,40.90
2023-03-06T09:36:42.887Z,40.70
2023-03-06T09:37:33.579Z,43.10
2023-03-06T09:38:33.572Z,42.40
2023-03-06T09:39:33.567Z,40.00
2023-03-06T09:40:33.558Z,40.50
2023-03-06T09:41:33.553Z,39.50
2023-03-06T09:42:35.229Z,39.80
2023-03-06T09:43:33.539Z,40.80
2023-03-06T09:44:33.530Z,43.90
2023-03-06T09:45:33.526Z,44.20
2023-03-06T09:46:33.517Z,42.70
2023-03-06T09:47:33.507Z,40.00
2023-03-06T09:48:33.517Z,42.70
2023-03-06T09:49:33.497Z,40.80
2023-03-06T09:50:33.487Z,42.50
2023-03-06T09:51:33.483Z,44.00
2023-03-06T09:52:33.472Z,44.70
2023-03-06T09:53:33.473Z,44.90
2023-03-06T09:54:33.461Z,45.40
2023-03-06T09:55:33.458Z,41.90
2023-03-06T09:56:33.444Z,41.40
2023-03-06T09:57:33.445Z,44.60
2023-03-06T09:58:33.433Z,42.00
2023-03-06T09:59:33.437Z,44.80
2023-03-06T10:00:33.425Z,46.00
2023-03-06T10:01:33.419Z,44.20
2023-03-06T10:02:33.495Z,44.30
2023-03-06T10:03:33.510Z,44.70
2023-03-06T10:04:33.488Z,44.70
2023-03-06T10:05:33.387Z,42.60
2023-03-06T10:06:33.389Z,44.40
2023-03-06T10:07:33.371Z,42.90
2023-03-06T10:08:33.366Z,42.70
2023-03-06T10:09:33.358Z,42.40
2023-03-06T10:10:33.607Z,45.10
2023-03-06T10:11:33.353Z,46.50
2023-03-06T10:12:33.342Z,45.30
2023-03-06T10:13:33.336Z,45.80
2023-03-06T10:14:33.333Z,44.80
2023-03-06T10:15:33.491Z,44.10
2023-03-06T10:16:33.317Z,42.10
2023-03-06T10:17:33.305Z,42.80
2023-03-06T10:18:33.301Z,45.70
2023-03-06T10:19:33.300Z,46.10
2023-03-06T10:20:33.430Z,47.50
2023-03-06T10:21:33.284Z,44.10
2023-03-06T10:22:33.284Z,42.90
2023-03-06T10:23:33.287Z,42.60
2023-03-06T10:24:33.263Z,43.90
2023-03-06T10:25:33.257Z,42.70
2023-03-06T10:26:33.350Z,44.20
2023-03-06T10:27:33.251Z,43.10
2023-03-06T10:28:35.115Z,40.60
2023-03-06T10:29:33.231Z,41.30
2023-03-06T10:30:33.230Z,40.10
2023-03-06T10:31:33.229Z,40.20
2023-03-06T10:32:46.159Z,40.60
2023-03-06T10:33:33.202Z,39.40
2023-03-06T10:34:33.218Z,39.80
2023-03-06T10:35:33.327Z,42.00
2023-03-06T10:36:33.306Z,41.60
2023-03-06T10:37:33.181Z,38.10
2023-03-06T10:38:33.196Z,36.90
2023-03-06T10:39:33.168Z,37.30
2023-03-06T10:40:33.162Z,38.30
2023-03-06T10:41:33.151Z,37.40
2023-03-06T10:42:33.169Z,37.10
2023-03-06T10:43:36.182Z,35.50
2023-03-06T10:44:33.159Z,37.00
2023-03-06T10:45:48.478Z,37.10
2023-03-06T10:46:33.201Z,35.30
2023-03-06T10:47:33.118Z,35.10
2023-03-06T10:48:33.107Z,34.40
2023-03-06T10:49:33.096Z,33.60
2023-03-06T10:50:33.091Z,34.20
2023-03-06T10:51:33.092Z,38.40
2023-03-06T10:52:33.102Z,37.20
2023-03-06T10:53:33.073Z,36.30
2023-03-06T10:54:33.064Z,34.90
2023-03-06T10:55:33.061Z,36.10
2023-03-06T10:56:33.061Z,33.20
2023-03-06T10:57:33.050Z,32.50
2023-03-06T10:58:33.049Z,33.70
2023-03-06T10:59:33.030Z,35.00
2023-03-06T11:00:33.025Z,33.10
2023-03-06T11:01:33.109Z,32.20
2023-03-06T11:02:33.015Z,30.20
2023-03-06T11:03:33.014Z,30.10
2023-03-06T11:04:33.092Z,29.00
2023-03-06T11:05:32.995Z,28.80
2023-03-06T11:06:33.014Z,27.60
2023-03-06T11:07:32.984Z,27.70
2023-03-06T11:08:33.040Z,29.90
2023-03-06T11:09:32.998Z,30.10
2023-03-06T11:10:32.966Z,28.60
2023-03-06T11:11:37.709Z,27.50
2023-03-06T11:12:32.945Z,30.00
2023-03-06T11:13:32.943Z,27.60
2023-03-06T11:14:32.932Z,28.10
2023-03-06T11:15:33.278Z,30.30
2023-03-06T11:16:33.041Z,29.70
2023-03-06T11:17:32.910Z,29.30
2023-03-06T11:18:32.908Z,30.50
2023-03-06T11:19:32.922Z,29.40
2023-03-06T11:20:48.624Z,26.70
2023-03-06T11:21:32.884Z,30.10
2023-03-06T11:22:32.880Z,30.30
2023-03-06T11:23:32.868Z,27.30
2023-03-06T11:24:32.883Z,30.50
2023-03-06T11:25:32.860Z,29.30
2023-03-06T11:26:32.851Z,31.00
2023-03-06T11:27:32.842Z,32.50
2023-03-06T11:28:32.844Z,31.50
2023-03-06T11:29:35.273Z,29.30
2023-03-06T11:30:32.821Z,31.00
2023-03-06T11:31:32.882Z,29.50
2023-03-06T11:32:32.841Z,30.80
2023-03-06T11:33:32.801Z,31.80
2023-03-06T11:34:32.798Z,28.10
2023-03-06T11:35:32.882Z,32.20
2023-03-06T11:36:32.785Z,34.10
2023-03-06T11:37:32.770Z,33.20
2023-03-06T11:38:32.772Z,30.70
2023-03-06T11:39:32.760Z,29.40
2023-03-06T11:40:32.884Z,31.60
2023-03-06T11:41:32.748Z,30.40
2023-03-06T11:42:32.744Z,31.10
2023-03-06T11:43:32.736Z,30.10
2023-03-06T11:44:32.726Z,33.60
2023-03-06T11:45:32.716Z,35.00
2023-03-06T11:46:32.770Z,33.00
2023-03-06T11:47:32.714Z,32.60
2023-03-06T11:48:32.709Z,31.60
2023-03-06T11:49:32.692Z,31.10
2023-03-06T11:50:32.695Z,30.60
2023-03-06T11:51:32.687Z,31.00
2023-03-06T11:52:32.675Z,30.80
2023-03-06T11:53:32.684Z,32.70
2023-03-06T11:54:32.661Z,34.10
2023-03-06T11:55:32.653Z,33.20
2023-03-06T11:56:32.713Z,32.40
2023-03-06T11:57:32.643Z,30.70
2023-03-06T11:58:32.643Z,31.30
2023-03-06T11:59:32.632Z,31.20
2023-03-06T12:00:32.624Z,30.10
2023-03-06T12:01:32.622Z,32.40
2023-03-06T12:02:32.613Z,34.10
2023-03-06T12:03:32.610Z,33.90
2023-03-06T12:04:32.606Z,33.70
2023-03-06T12:05:32.664Z,32.30
2023-03-06T12:06:32.591Z,32.10
2023-03-06T12:07:32.581Z,31.70
2023-03-06T12:08:32.580Z,30.70
2023-03-06T12:09:32.565Z,34.40
2023-03-06T12:10:32.559Z,33.00
2023-03-06T12:11:33.297Z,31.50
2023-03-06T12:12:32.566Z,30.30
2023-03-06T12:13:32.537Z,29.80
2023-03-06T12:14:32.548Z,29.10
2023-03-06T12:15:32.522Z,31.80
2023-03-06T12:16:32.674Z,30.10
2023-03-06T12:17:32.508Z,30.20
2023-03-06T12:18:32.538Z,28.60
2023-03-06T12:19:32.503Z,27.70
2023-03-06T12:20:32.692Z,29.30
2023-03-06T12:21:32.495Z,27.50
2023-03-06T12:22:32.494Z,29.30
2023-03-06T12:23:32.468Z,30.90
2023-03-06T12:24:32.464Z,30.70
2023-03-06T12:25:32.469Z,30.70
2023-03-06T12:26:32.460Z,30.20
2023-03-06T12:27:32.446Z,28.90
2023-03-06T12:28:32.462Z,30.70
2023-03-06T12:29:32.429Z,27.40
2023-03-06T12:30:32.432Z,26.70
2023-03-06T12:31:32.449Z,25.90
2023-03-06T12:32:32.462Z,27.90
2023-03-06T12:33:32.410Z,27.00
2023-03-06T12:34:32.397Z,26.60
2023-03-06T12:35:32.430Z,28.60
2023-03-06T12:36:32.385Z,27.80
2023-03-06T12:37:32.377Z,26.80
2023-03-06T12:38:32.379Z,28.20
2023-03-06T12:39:32.374Z,26.90
2023-03-06T12:40:32.356Z,26.60
2023-03-06T12:41:32.358Z,28.40
2023-03-06T12:42:32.345Z,29.30
2023-03-06T12:43:32.339Z,28.40
2023-03-06T12:44:32.356Z,26.70
2023-03-06T12:45:32.323Z,28.20
2023-03-06T12:46:32.323Z,28.40
2023-03-06T12:47:32.310Z,27.90
2023-03-06T12:48:32.310Z,28.60
2023-03-06T12:49:33.416Z,28.80
2023-03-06T12:50:32.309Z,28.50
2023-03-06T12:51:32.296Z,26.50
2023-03-06T12:52:32.298Z,27.30